РПИ Ростов-на-Дону

8 октября 2002 года в связи с концептуальными решениями реорганизации ЕС ОрВД и необходимостью оптимизации количества дочерних предприятий на основании распоряжения Министерства имущественных отношений Российской Федерации впервые на Юге России путем слияния ГУДП СКЦ АУВД «Стрела», ГУДП «Волгоградаэронавигация» и ГУДП «Кавказаэронавигация» было создано Государственное унитарное дочернее предприятие «Аэронавигация Юга».

ОСНОВНЫЕ ФУНКЦИИ ФИЛИАЛА: организация воздушного движения в границах ответственности; планирование и координирование использования воздушного пространства; информационное обеспечение пользователей воздушного пространства, предоставление средств радиотехнического обеспечения полётов, авиационной электросвязи; организация и осуществление технической эксплуатации и обслуживания объектов и средств радиотехнического обеспечения полётов, авиационной электросвязи и средств авиационной фиксированной спутниковой связи; контроль качества аэронавигационного обслуживания.

Обслуживаемая филиалом площадь, в воздушном пространстве которой решаются задачи ИВП и УВД, составляет 729 000 кв. км.

На территории Ростовской зоны ЕС ОрВД располагаются:

  • 104 воздушные трассы протяженностью 36504 км. (международных – 82, внутренних – 22);
  • 15 аэродромов гражданской авиации;
  • 37 аэродромов государственной авиации;
  • 3 аэродрома экспериментальной авиации;
  • 9 аэродромов ДОСААФ;
  • 151 посадочная площадка;
  • 177 градобойных  и 5 противолавинных позиций;
  • 47 авиационных и общевойсковых полигонов.

Филиал осуществляет аэронавигационное обслуживание в воздушном пространстве в границах Ростовской, Волгоградской, Астраханской областей, Краснодарского и Ставропольского краев, республик Адыгеи, Калмыкии, Ингушетии, Дагестана, Чеченской, Северной Осетии (Алания), Карачаево-Черкесской и Кабардино-Балкарской, а также над акваториями Азовского, Каспийского и Черного морей.

Сектора РЦ РПИ Ростов-на-Дону

Объединенный сектор РЦ - URRV_CTR - 122.900

Руководитель РПИ

Karim Garifullin*

Инструкторы РПИ
Denis Zhuchkov * (Senior Student)
Grigori Badalov (Instructor)
Karim Garifullin (Instructor)
Valeriy Polostyanoy (Instructor)
Входит в состав
ЗЦ Ростов-на-Дону

Диспетчеры РПИ

Диспетчер Рейтинг Допуски *
Artem Smychkov Instructor URRV_CTR
Daniel Ryabkov Senior Student URRV_CTR *
Denis Zhuchkov Senior Student URRV_CTR *
George Kalandadze Controller URRV_CTR
Grigori Badalov Instructor URRV_CTR
Ivan Chernov Senior Controller URRV_CTR
Karim Garifullin Instructor URRV_CTR
Konstantin Gorbunov Controller URRV_CTR
Tigran Areian Controller URRV_CTR
Valeriy Polostyanoy Instructor URRV_CTR
Alexey Zhirnov Student URSS_GND
Alikhan Aidarbek Student URSS_GND
Andrey Kharitonov Student URSS_GND*
Andrey Zonov Student 2 URSS_TWR!!!
Anton Nikolaev Student 2 URSS_APP*
Artem Tsendrovsky Senior Student URSS_APP, URWW_APP
Atsamaz Khodov Senior Student URSS_APP*
Boris Chernov Student URSS_GND
Daniil Lekoncev Student URSS_GND
Danila Lezhnin Student URSS_GND
Denis Zhilyakov Student URSS_GND
Evgeny Listratov Student URSS_GND
Gregory Adamov Student 2 URSS_TWR
Grigorii Turlykin Student 2 URSS_TWR
Ivan Pyataev Student URSS_GND
Kirill Ivanov Senior Student URSS_APP
Mikhail Petrov Student URSS_GND
Nikita Murushkin Student URKK_GND, URSS_GND
Renat Yengulatov Student URSS_GND
Roman Shelepov Student URSS_TWR!!!*
Sergey Vologzhin Student 2 URSS_GND
Timofey Krasnov Student URSS_GND
YAKOV PONOMARENKO Student URSS_GND
Yaroslav Vasilyev Student 2 URSS_TWR!!!

Аэропорты РПИ

ICAO Город Название Погода
URFF Симферополь Симферополь
URSS Сочи Сочи URSS 020230Z 04004MPS 9999 FEW030 19/16 Q1010 R02/010070 R06/010070 NOSIG RMK R06/07004MPS MT OBSC QFE756
URRY
URKA Анапа Анапа URKA 020230Z 05003MPS CAVOK 17/15 Q1013 R04/010070 NOSIG RMK QFE756/1008
URWA Астрахань Астрахань URWA 020230Z 02005MPS 330V050 CAVOK 18/09 Q1007 R27/010070 NOSIG RMK QFE757/1010
URMO Владикавказ Беслан URMO 020230Z AUTO VRB01MPS 9999 // ///077/// 18/16 Q1012 RMK QFE714/0952
URWW Волгоград Волгоград URWW 020230Z 29003MPS CAVOK 09/05 Q1010 R06/010070 TEMPO 1000 TSRAGR BKN004 BKN030CB
URKG Геленджик Геленджик
URMG Грозный Грозный URMG 020230Z 27003MPS 9999 BKN082 20/17 Q1009 R26/090070 NOSIG RMK QFE742/0990
URKK Краснодар Пашковский URKK 020230Z 33002MPS CAVOK 18/15 Q1012 R05R/CLRD70 NOSIG RMK QFE756
URML Махачкала Уйташ URML 020230Z 22003MPS 9999 NSC 21/17 Q1008 R32/01//70 NOSIG RMK QFE755/1007
URMM Минеральные Воды Минеральные Воды URMM 020230Z 28003MPS 9999 NSC 15/12 Q1011 R30/090070 NOSIG RMK QFE730/0974
URMS Назрань Магас
URMN Нальчик Нальчик URMN 020200Z 23002MPS 9999 BKN086 18/12 Q1010 R24/////// NOSIG RMK QFE721
URRP Ростов-на-Дону Платов URRP 020230Z 35004MPS 320V020 CAVOK 12/05 Q1015 R05/CLRD70 NOSIG RMK QFE757/1009
URRR Ростов-на-Дону Ростов-на-Дону
URMT Ставрополь Ставрополь URMT 020230Z 33005MPS CAVOK 17/10 Q1011 R25/010070 NOSIG RMK QFE720
URWI Элиста Элиста URWI 020230Z AUTO 01004MPS 9999 // ///075/// 15/06 Q1011